Time;durP1;ratioP1;P1;durP2;ratioP2;P2;SDS_P1;SDS_P2;PMS_P1;PMS_P2;Temp;Humidity;BMP_temperature;BMP_pressure;BME280_temperature;BME280_humidity;BME280_pressure;Samples;Min_cycle;Max_cycle;Signal;HPM_P1;HPM_P2
2021/06/20 00:00:08;;;;;;;11.80;7.63;;;29.30;68.30;;;;;;5003995;28;20057;-59
2021/06/20 00:02:34;;;;;;;10.90;8.32;;;29.30;68.30;;;;;;5005668;28;20034;-59
2021/06/20 00:04:59;;;;;;;13.02;8.02;;;29.30;68.50;;;;;;5004092;28;20044;-59
2021/06/20 00:07:25;;;;;;;13.05;7.72;;;29.20;68.40;;;;;;5005091;28;20038;-59
2021/06/20 00:09:50;;;;;;;9.02;8.00;;;29.20;68.40;;;;;;5005467;28;20034;-60
2021/06/20 00:12:16;;;;;;;10.13;7.40;;;29.20;68.50;;;;;;5005670;28;20130;-58
2021/06/20 00:14:41;;;;;;;11.45;8.05;;;29.20;68.50;;;;;;5004447;28;20026;-59
2021/06/20 00:17:07;;;;;;;10.32;7.93;;;29.10;68.60;;;;;;5004285;28;20112;-59
2021/06/20 00:19:32;;;;;;;10.80;7.93;;;29.10;68.70;;;;;;5005687;28;20121;-60
2021/06/20 00:21:58;;;;;;;9.40;8.40;;;29.10;68.80;;;;;;5001920;28;20030;-58
2021/06/20 00:24:23;;;;;;;11.63;8.25;;;29.10;68.90;;;;;;5004423;28;20160;-60
2021/06/20 00:26:49;;;;;;;13.32;7.22;;;29.10;69.00;;;;;;4987239;28;20169;-59
2021/06/20 00:29:14;;;;;;;8.55;7.03;;;29.00;69.10;;;;;;5002831;28;20456;-60
2021/06/20 00:31:40;;;;;;;11.15;8.38;;;29.00;69.20;;;;;;5004758;28;20041;-59
2021/06/20 00:34:05;;;;;;;9.10;7.68;;;29.00;69.20;;;;;;5004737;28;20976;-58
2021/06/20 00:36:31;;;;;;;11.30;8.52;;;29.00;69.30;;;;;;5004623;28;20014;-58
2021/06/20 00:38:56;;;;;;;16.63;8.50;;;29.00;69.50;;;;;;5004055;28;20040;-59
2021/06/20 00:41:22;;;;;;;12.02;8.48;;;28.90;69.60;;;;;;5002817;28;20105;-59
2021/06/20 00:43:47;;;;;;;12.10;8.10;;;28.90;69.60;;;;;;5004281;28;20048;-60
2021/06/20 00:46:13;;;;;;;12.93;8.52;;;28.90;69.70;;;;;;5004128;28;20505;-59
2021/06/20 00:48:38;;;;;;;10.43;8.13;;;28.90;69.90;;;;;;5003215;28;20022;-58
2021/06/20 00:51:04;;;;;;;11.77;8.25;;;28.80;70.30;;;;;;5004812;28;20038;-58
2021/06/20 00:53:30;;;;;;;11.98;8.27;;;28.80;69.90;;;;;;5003553;28;20096;-59
2021/06/20 00:55:57;;;;;;;16.00;8.13;;;28.80;70.10;;;;;;5003981;28;20105;-59
2021/06/20 00:58:23;;;;;;;9.82;7.90;;;28.80;70.10;;;;;;5003759;28;20076;-60
2021/06/20 01:00:48;;;;;;;11.55;8.07;;;28.70;70.10;;;;;;5003024;28;20034;-59
2021/06/20 01:03:14;;;;;;;14.60;8.43;;;28.70;70.20;;;;;;5003957;28;20048;-60
2021/06/20 01:05:41;;;;;;;11.60;8.02;;;28.70;70.10;;;;;;5003082;28;20044;-59
2021/06/20 01:08:06;;;;;;;11.05;8.20;;;28.70;70.20;;;;;;5002908;28;20064;-59
2021/06/20 01:10:36;;;;;;;9.35;8.10;;;28.70;70.20;;;;;;5002936;28;20482;-59
2021/06/20 01:13:05;;;;;;;8.77;7.57;;;28.60;70.20;;;;;;5005265;28;20493;-59
2021/06/20 01:15:31;;;;;;;11.05;8.10;;;28.60;70.30;;;;;;5004294;28;20490;-60
2021/06/20 01:17:56;;;;;;;9.07;8.10;;;28.60;70.40;;;;;;5001979;28;20028;-59
2021/06/20 01:20:22;;;;;;;9.60;8.30;;;28.60;70.40;;;;;;4986500;28;20188;-60
2021/06/20 01:22:49;;;;;;;14.23;8.15;;;28.60;70.70;;;;;;5003866;28;20028;-59
2021/06/20 01:25:17;;;;;;;12.18;8.82;;;28.50;70.50;;;;;;5003675;28;20057;-59
2021/06/20 01:27:45;;;;;;;10.18;8.10;;;28.60;70.60;;;;;;5003886;28;20026;-59
2021/06/20 01:30:14;;;;;;;9.15;8.23;;;28.50;70.60;;;;;;4986359;28;20028;-58
2021/06/20 01:32:40;;;;;;;12.02;7.80;;;28.50;70.70;;;;;;5002396;28;20502;-60
2021/06/20 01:35:06;;;;;;;11.25;7.63;;;28.50;70.80;;;;;;4985732;28;20062;-59
2021/06/20 01:37:31;;;;;;;11.77;7.78;;;28.40;70.80;;;;;;5004327;28;20018;-59
2021/06/20 01:39:57;;;;;;;11.20;7.50;;;28.40;70.80;;;;;;4986640;28;20056;-60
2021/06/20 01:42:23;;;;;;;13.95;7.95;;;28.40;70.70;;;;;;5004466;28;20080;-60
2021/06/20 01:44:58;;;;;;;13.35;8.32;;;28.40;70.70;;;;;;5000330;28;20057;-59
2021/06/20 01:47:25;;;;;;;12.40;7.53;;;28.40;70.50;;;;;;5002613;28;20125;-59
2021/06/20 01:49:53;;;;;;;17.55;8.40;;;28.30;70.40;;;;;;5002628;28;20058;-58
2021/06/20 01:52:23;;;;;;;12.95;7.55;;;28.30;70.30;;;;;;5002698;28;20359;-59
2021/06/20 01:54:52;;;;;;;15.02;8.15;;;28.20;70.30;;;;;;5002015;28;20113;-58
2021/06/20 01:57:21;;;;;;;18.10;7.70;;;28.30;70.40;;;;;;5003522;28;20571;-59
2021/06/20 01:59:47;;;;;;;16.35;7.50;;;28.20;70.20;;;;;;5001667;28;20050;-58
2021/06/20 02:02:13;;;;;;;14.15;7.47;;;28.20;70.10;;;;;;5002514;28;20481;-59
2021/06/20 02:04:38;;;;;;;18.73;7.28;;;28.20;70.10;;;;;;5002064;28;20385;-60
2021/06/20 02:07:07;;;;;;;18.60;7.45;;;28.10;69.90;;;;;;5002803;28;20445;-59
2021/06/20 02:09:32;;;;;;;17.20;7.03;;;28.10;69.80;;;;;;5002821;28;20073;-59
2021/06/20 02:11:58;;;;;;;12.30;6.60;;;28.10;69.80;;;;;;5004062;28;20029;-59
2021/06/20 02:14:23;;;;;;;16.25;6.72;;;28.10;69.80;;;;;;5002470;28;20034;-59
2021/06/20 02:16:49;;;;;;;13.82;6.28;;;28.00;69.70;;;;;;5003778;28;20026;-60
2021/06/20 02:19:14;;;;;;;15.75;6.15;;;28.00;69.60;;;;;;5003952;28;20061;-59
2021/06/20 02:21:40;;;;;;;9.27;5.75;;;28.00;69.50;;;;;;5001754;28;20121;-60
2021/06/20 02:24:05;;;;;;;11.55;5.90;;;28.00;69.50;;;;;;5003301;28;20513;-59
2021/06/20 02:26:31;;;;;;;19.25;7.13;;;27.90;69.50;;;;;;5002264;28;20026;-59
2021/06/20 02:28:56;;;;;;;12.90;6.18;;;27.90;69.60;;;;;;5002640;28;20070;-59
2021/06/20 02:31:22;;;;;;;11.23;6.00;;;27.90;69.50;;;;;;5006881;28;20128;-60
2021/06/20 02:33:47;;;;;;;9.73;5.00;;;27.90;69.60;;;;;;5006275;28;20042;-60
2021/06/20 02:36:13;;;;;;;14.27;5.70;;;27.80;69.20;;;;;;5006748;28;20037;-59
2021/06/20 02:38:38;;;;;;;14.15;6.18;;;27.80;69.10;;;;;;5003946;28;20398;-59
2021/06/20 02:41:04;;;;;;;14.57;5.20;;;27.80;69.30;;;;;;5004742;28;20049;-59
2021/06/20 02:43:30;;;;;;;12.93;5.15;;;27.70;69.20;;;;;;5001273;28;20060;-58
2021/06/20 02:45:55;;;;;;;13.40;4.97;;;27.70;69.00;;;;;;4985976;28;20073;-59
2021/06/20 02:48:21;;;;;;;11.38;4.80;;;27.70;69.00;;;;;;5002353;28;20116;-60
2021/06/20 02:50:46;;;;;;;10.98;4.85;;;27.70;69.10;;;;;;5003650;28;20448;-59
2021/06/20 02:53:12;;;;;;;11.63;5.30;;;27.60;68.80;;;;;;5004253;28;20025;-59
2021/06/20 02:55:37;;;;;;;11.65;5.38;;;27.60;69.00;;;;;;5002688;28;20040;-59
2021/06/20 02:58:03;;;;;;;11.85;4.70;;;27.60;69.00;;;;;;5002250;28;20438;-60
2021/06/20 03:00:28;;;;;;;10.85;5.10;;;27.60;68.80;;;;;;4999151;28;20367;-59
2021/06/20 03:02:54;;;;;;;11.63;4.80;;;27.50;68.70;;;;;;5004466;28;20402;-59
2021/06/20 03:05:19;;;;;;;13.50;4.38;;;27.50;68.60;;;;;;5003376;28;20390;-59
2021/06/20 03:07:45;;;;;;;10.02;4.75;;;27.50;68.60;;;;;;5006110;28;20025;-60
2021/06/20 03:10:11;;;;;;;12.35;4.85;;;27.50;68.60;;;;;;5004539;28;20029;-58
2021/06/20 03:12:36;;;;;;;17.63;4.90;;;27.50;68.80;;;;;;5005184;28;20049;-59
2021/06/20 03:15:02;;;;;;;11.65;5.40;;;27.40;68.90;;;;;;5004721;28;20026;-59
2021/06/20 03:17:28;;;;;;;10.98;4.72;;;27.40;68.90;;;;;;5006030;28;20018;-58
2021/06/20 03:19:53;;;;;;;10.65;4.97;;;27.40;68.80;;;;;;5006610;28;20116;-58
2021/06/20 03:22:19;;;;;;;8.60;4.30;;;27.40;68.80;;;;;;5006167;28;20060;-59
2021/06/20 03:24:47;;;;;;;10.50;4.65;;;27.40;68.70;;;;;;5003289;28;20045;-60
2021/06/20 03:27:13;;;;;;;12.98;5.10;;;27.30;68.70;;;;;;5004557;28;20080;-58
2021/06/20 03:29:38;;;;;;;10.88;4.60;;;27.30;68.70;;;;;;5005021;28;20431;-59
2021/06/20 03:32:04;;;;;;;10.00;5.25;;;27.30;68.70;;;;;;5004782;28;20045;-59
2021/06/20 03:34:32;;;;;;;9.18;4.57;;;27.30;68.70;;;;;;5005504;28;20157;-59
2021/06/20 03:36:58;;;;;;;6.50;4.18;;;27.20;68.70;;;;;;5005087;28;20037;-59
2021/06/20 03:39:24;;;;;;;8.27;4.38;;;27.20;68.60;;;;;;5006205;28;20030;-58
2021/06/20 03:41:49;;;;;;;10.23;4.82;;;27.20;68.60;;;;;;5004788;28;20037;-60
2021/06/20 03:44:15;;;;;;;9.30;4.10;;;27.20;68.60;;;;;;5003839;28;20022;-59
2021/06/20 03:46:40;;;;;;;8.15;4.13;;;27.20;68.60;;;;;;4986442;28;20040;-59
2021/06/20 03:49:06;;;;;;;10.65;4.53;;;27.20;68.50;;;;;;5004755;28;20030;-59
2021/06/20 03:51:31;;;;;;;9.63;4.40;;;27.20;68.60;;;;;;5005935;28;20378;-59
2021/06/20 03:53:57;;;;;;;7.22;4.15;;;27.20;68.60;;;;;;5004356;28;20116;-58
2021/06/20 03:56:22;;;;;;;12.68;4.45;;;27.20;68.50;;;;;;5005621;28;20030;-59
2021/06/20 03:58:48;;;;;;;9.30;4.38;;;27.10;68.50;;;;;;5001638;28;20025;-58
2021/06/20 04:01:13;;;;;;;9.93;4.60;;;27.20;68.50;;;;;;5000803;28;20656;-59
2021/06/20 04:03:39;;;;;;;9.15;3.80;;;27.10;68.40;;;;;;5005456;28;20057;-59
2021/06/20 04:06:05;;;;;;;9.23;3.92;;;27.10;68.40;;;;;;5004861;28;20504;-59
2021/06/20 04:08:30;;;;;;;7.07;4.43;;;27.10;68.40;;;;;;4988119;28;20037;-59
2021/06/20 04:10:56;;;;;;;8.70;3.90;;;27.10;68.40;;;;;;5005369;28;20034;-58
2021/06/20 04:13:21;;;;;;;11.40;4.35;;;27.10;68.30;;;;;;5003877;28;20477;-59
2021/06/20 04:15:47;;;;;;;8.95;4.25;;;27.10;68.20;;;;;;5004682;28;20034;-58
2021/06/20 04:18:12;;;;;;;11.60;3.60;;;27.00;68.20;;;;;;5004754;28;20038;-59
2021/06/20 04:20:38;;;;;;;14.95;4.78;;;27.00;68.20;;;;;;5019448;28;20045;-59
2021/06/20 04:23:03;;;;;;;9.15;4.63;;;27.00;68.10;;;;;;5003677;28;20030;-60
2021/06/20 04:25:29;;;;;;;12.05;4.22;;;27.00;68.10;;;;;;5002725;28;20497;-60
2021/06/20 04:27:54;;;;;;;13.00;4.03;;;27.00;68.10;;;;;;5004299;28;20220;-59
2021/06/20 04:30:21;;;;;;;12.30;4.07;;;27.00;68.10;;;;;;5005136;28;20033;-59
2021/06/20 04:32:47;;;;;;;14.20;4.57;;;26.90;68.00;;;;;;5005368;28;20265;-59
2021/06/20 04:35:14;;;;;;;11.15;4.05;;;26.90;67.90;;;;;;5003607;28;20269;-61
2021/06/20 04:37:39;;;;;;;9.15;4.30;;;26.90;68.10;;;;;;5004500;28;20025;-59
2021/06/20 04:40:06;;;;;;;11.38;3.90;;;26.90;68.10;;;;;;5004447;28;20410;-60
2021/06/20 04:42:42;;;;;;;10.60;4.88;;;26.90;68.30;;;;;;5003841;28;20470;-60
2021/06/20 04:45:08;;;;;;;14.32;4.63;;;26.90;68.40;;;;;;5003161;28;20061;-59
2021/06/20 04:47:34;;;;;;;14.40;4.47;;;26.90;68.50;;;;;;5004757;28;20108;-59
2021/06/20 04:49:59;;;;;;;9.40;3.55;;;26.80;68.40;;;;;;5003530;28;20026;-60
2021/06/20 04:52:25;;;;;;;11.80;3.85;;;26.80;68.50;;;;;;5002280;28;20132;-58
2021/06/20 04:54:51;;;;;;;12.88;3.80;;;26.80;68.60;;;;;;5004428;28;20070;-60
2021/06/20 04:57:21;;;;;;;10.38;3.60;;;26.70;68.70;;;;;;4987214;28;20034;-59
2021/06/20 04:59:47;;;;;;;12.77;4.53;;;26.70;68.70;;;;;;5003464;28;20026;-60
2021/06/20 05:02:13;;;;;;;13.35;4.32;;;26.80;68.80;;;;;;5003445;28;20029;-58
2021/06/20 05:04:40;;;;;;;14.10;3.90;;;26.70;68.80;;;;;;5002077;28;20062;-59
2021/06/20 05:07:05;;;;;;;11.95;4.05;;;26.70;68.90;;;;;;5004292;28;20025;-60
2021/06/20 05:09:31;;;;;;;10.88;4.18;;;26.70;68.90;;;;;;5003770;28;20217;-59
2021/06/20 05:11:57;;;;;;;20.23;4.25;;;26.70;69.00;;;;;;5003132;28;20030;-61
2021/06/20 05:14:22;;;;;;;14.02;4.07;;;26.70;69.00;;;;;;5003957;28;20026;-58
2021/06/20 05:16:48;;;;;;;11.82;3.63;;;26.70;69.10;;;;;;5003043;28;20108;-59
2021/06/20 05:19:13;;;;;;;13.38;3.80;;;26.70;69.20;;;;;;5004711;28;20030;-59
2021/06/20 05:21:39;;;;;;;12.52;4.05;;;26.60;69.20;;;;;;5003974;28;20935;-60
2021/06/20 05:24:05;;;;;;;11.75;3.55;;;26.60;69.30;;;;;;5003020;28;20084;-60
2021/06/20 05:26:30;;;;;;;13.30;3.25;;;26.70;69.50;;;;;;5002875;28;20572;-59
2021/06/20 05:28:56;;;;;;;9.23;3.40;;;26.60;69.30;;;;;;5001142;28;20034;-59
2021/06/20 05:31:21;;;;;;;8.63;3.63;;;26.60;69.40;;;;;;5002728;28;20042;-58
2021/06/20 05:33:47;;;;;;;12.77;4.15;;;26.60;69.40;;;;;;5002941;28;20076;-59
2021/06/20 05:36:13;;;;;;;17.17;3.75;;;26.60;69.70;;;;;;5002228;28;20055;-59
2021/06/20 05:38:38;;;;;;;9.23;3.80;;;26.60;70.30;;;;;;5002637;28;20382;-59
2021/06/20 05:41:04;;;;;;;8.40;3.13;;;26.60;70.10;;;;;;5003239;28;20057;-59
2021/06/20 05:43:29;;;;;;;9.30;3.10;;;26.60;69.80;;;;;;5002670;28;20108;-59
2021/06/20 05:45:55;;;;;;;10.90;4.00;;;26.50;69.50;;;;;;5001947;28;20026;-60
2021/06/20 05:48:20;;;;;;;11.05;3.75;;;26.50;69.50;;;;;;4985959;28;20026;-59
2021/06/20 05:50:46;;;;;;;9.15;3.90;;;26.50;69.50;;;;;;5004603;28;20358;-58
2021/06/20 05:53:11;;;;;;;13.32;4.00;;;26.60;69.70;;;;;;5003333;28;20517;-59
2021/06/20 05:55:37;;;;;;;14.32;3.67;;;26.50;69.60;;;;;;4985362;28;20042;-60
2021/06/20 05:58:03;;;;;;;9.68;3.75;;;26.50;69.60;;;;;;5001362;28;20034;-58
2021/06/20 06:00:28;;;;;;;10.80;3.55;;;26.50;69.70;;;;;;5000409;28;20030;-60
2021/06/20 06:02:58;;;;;;;9.32;3.72;;;26.50;69.60;;;;;;5002101;28;20026;-60
2021/06/20 06:05:23;;;;;;;9.07;3.70;;;26.50;69.50;;;;;;5005035;28;20022;-59
2021/06/20 06:07:49;;;;;;;10.45;3.40;;;26.50;69.60;;;;;;5007386;28;20053;-59
2021/06/20 06:10:14;;;;;;;17.17;3.50;;;26.50;69.60;;;;;;4989834;28;20033;-59
2021/06/20 06:12:40;;;;;;;11.57;3.30;;;26.50;69.60;;;;;;4990081;28;20030;-58
2021/06/20 06:15:06;;;;;;;9.23;3.70;;;26.50;69.50;;;;;;5006254;28;20037;-59
2021/06/20 06:17:32;;;;;;;9.38;3.25;;;26.50;69.50;;;;;;5005295;28;20982;-58
2021/06/20 06:19:57;;;;;;;8.57;3.03;;;26.50;69.50;;;;;;5007012;28;20080;-60
2021/06/20 06:22:23;;;;;;;11.35;3.65;;;26.50;69.60;;;;;;5007630;28;20038;-60
2021/06/20 06:24:49;;;;;;;11.48;3.55;;;26.50;69.60;;;;;;5007764;28;20038;-59
2021/06/20 06:27:14;;;;;;;10.90;3.30;;;26.60;69.60;;;;;;5005367;28;20041;-59
2021/06/20 06:29:40;;;;;;;8.63;3.10;;;26.50;69.60;;;;;;4989516;28;20080;-59
2021/06/20 06:32:06;;;;;;;11.07;3.47;;;26.50;69.60;;;;;;5006439;28;20165;-59
2021/06/20 06:34:32;;;;;;;8.43;3.00;;;26.50;69.70;;;;;;4989638;28;20410;-58
2021/06/20 06:36:58;;;;;;;8.73;3.10;;;26.50;69.70;;;;;;5005104;28;20493;-60
2021/06/20 06:39:25;;;;;;;7.68;2.85;;;26.50;69.70;;;;;;5007225;28;20092;-58
2021/06/20 06:41:51;;;;;;;11.10;3.20;;;26.50;69.70;;;;;;5006968;28;20022;-59
2021/06/20 06:44:17;;;;;;;9.52;3.22;;;26.50;69.80;;;;;;5004654;28;20037;-58
2021/06/20 06:46:42;;;;;;;10.60;3.13;;;26.50;69.70;;;;;;5005575;28;20026;-59
2021/06/20 06:49:08;;;;;;;9.15;3.20;;;26.50;69.60;;;;;;5006085;28;20056;-58
2021/06/20 06:51:33;;;;;;;6.03;2.75;;;26.50;69.70;;;;;;5007334;28;20057;-59
2021/06/20 06:53:59;;;;;;;10.50;3.28;;;26.50;69.70;;;;;;5005256;28;20113;-59
2021/06/20 06:56:24;;;;;;;8.95;2.78;;;26.60;69.80;;;;;;5005581;28;20073;-59
2021/06/20 06:58:50;;;;;;;13.00;3.10;;;26.60;69.60;;;;;;5007498;28;20033;-59
2021/06/20 07:01:15;;;;;;;13.90;3.92;;;26.60;69.60;;;;;;5004932;28;20037;-58
2021/06/20 07:03:41;;;;;;;13.18;3.95;;;26.50;69.50;;;;;;5006559;28;20490;-59
2021/06/20 07:06:06;;;;;;;13.77;3.10;;;26.50;69.40;;;;;;5005857;28;20058;-60
2021/06/20 07:08:32;;;;;;;12.15;3.17;;;26.50;69.50;;;;;;5005875;28;20505;-58
2021/06/20 07:10:57;;;;;;;7.03;2.75;;;26.50;69.50;;;;;;5005347;28;20478;-59
2021/06/20 07:13:23;;;;;;;8.00;3.05;;;26.50;69.50;;;;;;5005816;28;20092;-59
2021/06/20 07:15:48;;;;;;;12.02;2.75;;;26.50;69.50;;;;;;5005814;28;20597;-59
2021/06/20 07:18:15;;;;;;;7.93;2.60;;;26.50;69.60;;;;;;5004322;28;20038;-58
2021/06/20 07:20:40;;;;;;;9.32;2.80;;;26.50;69.50;;;;;;5005142;28;20053;-60
2021/06/20 07:23:06;;;;;;;12.23;3.17;;;26.50;69.60;;;;;;5004782;28;20367;-59
2021/06/20 07:25:31;;;;;;;8.95;2.75;;;26.40;69.60;;;;;;5005471;28;20041;-59
2021/06/20 07:27:57;;;;;;;10.63;3.05;;;26.40;69.60;;;;;;5004115;28;20513;-59
2021/06/20 07:30:23;;;;;;;5.32;3.13;;;26.40;69.60;;;;;;5006218;28;20026;-58
2021/06/20 07:32:49;;;;;;;7.15;2.88;;;26.40;69.70;;;;;;5002901;28;20026;-59
2021/06/20 07:35:15;;;;;;;9.85;2.80;;;26.40;69.70;;;;;;5003949;28;20497;-59
2021/06/20 07:37:40;;;;;;;9.25;2.83;;;26.40;70.10;;;;;;5005590;28;20026;-59
2021/06/20 07:40:10;;;;;;;7.38;2.92;;;26.30;70.00;;;;;;5006040;28;20363;-58
2021/06/20 07:42:36;;;;;;;9.65;2.40;;;26.30;70.00;;;;;;5004684;28;20018;-58
2021/06/20 07:45:02;;;;;;;8.85;2.50;;;26.30;70.10;;;;;;5004633;28;20041;-59
2021/06/20 07:47:27;;;;;;;6.50;2.45;;;26.30;70.10;;;;;;5005948;28;20148;-60
2021/06/20 07:49:53;;;;;;;7.15;2.15;;;26.30;70.10;;;;;;4988133;28;20451;-59
2021/06/20 07:52:18;;;;;;;6.63;2.08;;;26.20;70.10;;;;;;5002324;28;20037;-59
2021/06/20 07:54:49;;;;;;;4.03;2.08;;;26.20;70.30;;;;;;5005714;28;20037;-59
2021/06/20 07:57:24;;;;;;;11.50;2.53;;;26.20;70.40;;;;;;5004780;28;20034;-59
2021/06/20 07:59:49;;;;;;;7.43;2.20;;;26.20;70.30;;;;;;5002485;28;20029;-59
2021/06/20 08:02:15;;;;;;;12.20;2.30;;;26.20;70.20;;;;;;5004898;28;20034;-59
2021/06/20 08:04:41;;;;;;;15.13;2.63;;;26.10;70.10;;;;;;5005048;28;20030;-59
2021/06/20 08:07:07;;;;;;;8.45;2.30;;;26.10;70.20;;;;;;5003032;28;20045;-59
2021/06/20 08:09:32;;;;;;;14.27;2.63;;;26.10;70.40;;;;;;5003328;28;20082;-59
2021/06/20 08:11:58;;;;;;;18.70;3.03;;;26.00;70.40;;;;;;5003253;28;20042;-58
2021/06/20 08:14:23;;;;;;;22.67;3.35;;;26.00;70.50;;;;;;5004957;28;20113;-59
2021/06/20 08:16:49;;;;;;;12.45;2.78;;;25.90;70.60;;;;;;5003239;28;20022;-59
2021/06/20 08:19:14;;;;;;;24.23;2.97;;;25.90;71.30;;;;;;5004400;28;20205;-59
2021/06/20 08:21:42;;;;;;;10.82;2.30;;;25.90;70.70;;;;;;5005185;28;20040;-59
2021/06/20 08:24:08;;;;;;;9.82;1.90;;;25.90;70.40;;;;;;5004460;28;20034;-59
2021/06/20 08:26:33;;;;;;;10.77;2.65;;;25.80;70.50;;;;;;5004535;28;20026;-59
2021/06/20 08:28:59;;;;;;;13.95;2.80;;;25.80;70.80;;;;;;5003237;28;20026;-59
2021/06/20 08:31:24;;;;;;;7.78;1.92;;;25.70;71.00;;;;;;5002857;28;20514;-59
2021/06/20 08:33:50;;;;;;;7.65;1.85;;;25.80;70.60;;;;;;5004458;28;20149;-59
2021/06/20 08:36:15;;;;;;;6.30;1.98;;;25.70;70.20;;;;;;5003392;28;20030;-60
2021/06/20 08:38:42;;;;;;;15.68;2.83;;;25.80;69.80;;;;;;5004929;28;20026;-59
2021/06/20 08:41:08;;;;;;;15.40;2.92;;;25.70;69.60;;;;;;5003454;28;20133;-58
2021/06/20 08:43:34;;;;;;;12.95;2.70;;;25.90;69.70;;;;;;5002664;28;20477;-59
2021/06/20 08:45:59;;;;;;;41.72;4.32;;;25.80;69.60;;;;;;5001815;28;20045;-59
2021/06/20 08:48:25;;;;;;;22.60;2.88;;;25.80;69.60;;;;;;4999050;28;20058;-59
2021/06/20 08:50:51;;;;;;;20.45;3.00;;;25.80;69.50;;;;;;5003786;28;20627;-58
2021/06/20 08:53:17;;;;;;;12.30;2.70;;;25.80;69.10;;;;;;5003404;28;20040;-58
2021/06/20 08:55:43;;;;;;;7.85;1.88;;;25.80;66.80;;;;;;4985935;28;20030;-59
2021/06/20 08:58:23;;;;;;;25.15;3.90;;;25.80;65.90;;;;;;5003060;28;20022;-59
2021/06/20 09:00:49;;;;;;;65.57;7.38;;;25.80;65.30;;;;;;5001345;28;20049;-59
2021/06/20 09:03:15;;;;;;;32.42;3.47;;;25.90;65.30;;;;;;4998240;28;20127;-58
2021/06/20 09:05:54;;;;;;;32.75;3.55;;;25.90;64.80;;;;;;5002008;28;20398;-59
2021/06/20 09:08:27;;;;;;;28.38;3.45;;;25.90;64.20;;;;;;5002648;28;20022;-59
2021/06/20 09:10:52;;;;;;;18.60;2.58;;;25.90;63.70;;;;;;4999124;28;20107;-60
2021/06/20 09:13:18;;;;;;;37.85;3.25;;;26.00;64.10;;;;;;5001499;28;20047;-59
2021/06/20 09:15:44;;;;;;;41.03;4.22;;;26.00;64.80;;;;;;4999769;28;20057;-59
2021/06/20 09:18:12;;;;;;;28.30;4.28;;;26.00;65.10;;;;;;5001959;28;20030;-59
2021/06/20 09:20:42;;;;;;;27.45;4.28;;;26.10;65.10;;;;;;5003228;28;20505;-59
2021/06/20 09:23:12;;;;;;;11.63;2.70;;;26.10;65.10;;;;;;5001929;28;20022;-59
2021/06/20 09:25:39;;;;;;;44.28;4.70;;;26.10;64.90;;;;;;5000393;28;20029;-58
2021/06/20 09:28:05;;;;;;;27.27;3.45;;;26.10;64.90;;;;;;5000093;28;20337;-59
2021/06/20 09:30:31;;;;;;;19.13;3.05;;;26.10;65.00;;;;;;5001981;28;20054;-58
2021/06/20 09:33:03;;;;;;;26.92;3.65;;;26.10;64.60;;;;;;5001390;28;20053;-59
2021/06/20 09:35:42;;;;;;;17.55;2.95;;;26.20;64.10;;;;;;5000835;28;20026;-59
2021/06/20 09:38:09;;;;;;;26.52;3.42;;;26.20;63.90;;;;;;5001575;28;20544;-60
2021/06/20 09:40:35;;;;;;;18.35;2.58;;;26.30;63.80;;;;;;5005854;28;20046;-59
2021/06/20 09:43:13;;;;;;;14.73;2.97;;;26.30;63.70;;;;;;5005181;28;20034;-59
2021/06/20 09:45:44;;;;;;;36.78;4.55;;;26.30;63.60;;;;;;5005241;28;20022;-59
2021/06/20 09:48:21;;;;;;;18.23;3.30;;;26.30;63.90;;;;;;5005335;28;20037;-60
2021/06/20 09:50:46;;;;;;;16.15;2.92;;;26.40;63.60;;;;;;5006712;28;20069;-59
2021/06/20 09:53:12;;;;;;;27.30;3.58;;;26.40;63.40;;;;;;5005788;28;20029;-59
2021/06/20 09:55:37;;;;;;;43.17;4.75;;;26.40;63.20;;;;;;5005721;28;20486;-59
2021/06/20 09:58:03;;;;;;;26.20;3.65;;;26.50;63.80;;;;;;5003947;28;20065;-59
2021/06/20 10:00:36;;;;;;;29.02;5.07;;;26.50;63.70;;;;;;5004652;28;20894;-58
2021/06/20 10:03:02;;;;;;;25.77;4.07;;;26.50;63.90;;;;;;4987835;28;20111;-59
2021/06/20 10:05:27;;;;;;;25.50;3.40;;;26.50;63.90;;;;;;5001363;28;20069;-59
2021/06/20 10:07:53;;;;;;;24.33;4.50;;;26.50;63.60;;;;;;5001301;28;20050;-58
2021/06/20 10:10:19;;;;;;;23.13;4.15;;;26.50;63.70;;;;;;5004276;28;20018;-59
2021/06/20 10:12:44;;;;;;;21.75;3.60;;;26.60;64.20;;;;;;5003604;28;20141;-59
2021/06/20 10:15:11;;;;;;;47.85;5.10;;;26.60;64.60;;;;;;5002568;28;20057;-58
2021/06/20 10:17:39;;;;;;;34.28;5.55;;;26.70;64.80;;;;;;5002215;28;20065;-59
2021/06/20 10:20:06;;;;;;;31.00;5.20;;;26.70;65.00;;;;;;5002394;28;20856;-59
2021/06/20 10:22:37;;;;;;;25.48;3.88;;;26.80;64.70;;;;;;5018066;28;20022;-58
2021/06/20 10:25:07;;;;;;;20.35;4.57;;;26.80;64.30;;;;;;5018779;28;20034;-59
2021/06/20 10:27:48;;;;;;;32.28;5.53;;;26.80;63.70;;;;;;5003485;28;20030;-59
2021/06/20 10:30:20;;;;;;;23.65;4.70;;;26.90;64.30;;;;;;5004002;28;20038;-60
2021/06/20 10:32:47;;;;;;;33.10;5.25;;;26.90;64.20;;;;;;5003032;28;20050;-59
2021/06/20 10:35:20;;;;;;;43.25;5.80;;;27.00;63.50;;;;;;5003559;28;20056;-59
2021/06/20 10:37:46;;;;;;;54.92;7.50;;;27.00;62.90;;;;;;5001901;28;20125;-60
2021/06/20 10:40:26;;;;;;;458.17;40.22;;;27.00;63.50;;;;;;5005230;28;20034;-59
2021/06/20 10:42:53;;;;;;;105.88;11.75;;;27.10;63.80;;;;;;5002384;28;20436;-60
2021/06/20 10:45:34;;;;;;;54.97;7.78;;;27.10;63.50;;;;;;5000954;28;20622;-60
2021/06/20 10:48:14;;;;;;;74.30;9.82;;;27.20;62.60;;;;;;5003446;28;20029;-58
2021/06/20 10:50:43;;;;;;;53.05;7.95;;;27.20;62.80;;;;;;5002383;28;20493;-60
2021/06/20 10:53:08;;;;;;;39.78;6.47;;;27.30;62.70;;;;;;4985745;28;20041;-60
2021/06/20 10:55:41;;;;;;;51.25;6.68;;;27.30;61.50;;;;;;5003207;28;20030;-59
2021/06/20 10:58:24;;;;;;;31.65;6.90;;;27.30;61.80;;;;;;5018408;28;20033;-59
2021/06/20 11:00:51;;;;;;;57.95;7.30;;;27.30;61.20;;;;;;4965236;28;20799;-60
2021/06/20 11:03:27;;;;;;;35.75;6.88;;;27.40;61.70;;;;;;5001406;28;20537;-59
2021/06/20 11:05:57;;;;;;;37.83;6.43;;;27.40;61.00;;;;;;5017357;28;20038;-61
2021/06/20 11:08:33;;;;;;;46.30;7.57;;;27.40;60.90;;;;;;5002936;28;20037;-60
2021/06/20 11:11:23;;;;;;;38.70;6.03;;;27.50;61.30;;;;;;4988167;28;20014;-61
2021/06/20 11:14:00;;;;;;;28.60;6.00;;;27.50;61.10;;;;;;5002821;28;20022;-59
2021/06/20 11:16:33;;;;;;;46.42;7.15;;;27.60;61.10;;;;;;5002173;28;20366;-60
2021/06/20 11:19:08;;;;;;;31.13;6.80;;;27.60;62.30;;;;;;5001647;28;20571;-59
2021/06/20 11:21:34;;;;;;;38.25;7.07;;;27.70;61.20;;;;;;5003234;28;20037;-59
2021/06/20 11:24:00;;;;;;;38.45;7.28;;;27.70;61.20;;;;;;5000095;28;20032;-59
2021/06/20 11:26:25;;;;;;;38.63;7.20;;;27.80;61.10;;;;;;4983092;28;20034;-60
2021/06/20 11:29:05;;;;;;;31.77;5.53;;;27.80;61.40;;;;;;5001863;28;20128;-59
2021/06/20 11:31:30;;;;;;;86.28;9.65;;;27.90;61.10;;;;;;5014886;28;20581;-59
2021/06/20 11:33:56;;;;;;;29.02;6.35;;;28.00;60.80;;;;;;5001418;28;20133;-59
2021/06/20 11:36:22;;;;;;;37.50;7.03;;;28.00;60.60;;;;;;4998906;28;20069;-59
2021/06/20 11:38:48;;;;;;;32.80;6.20;;;28.00;60.20;;;;;;5003843;28;20116;-59
2021/06/20 11:41:16;;;;;;;49.15;6.57;;;28.00;60.10;;;;;;5002558;28;20026;-59
2021/06/20 11:43:56;;;;;;;39.58;7.15;;;28.10;60.60;;;;;;5002756;28;20017;-60
2021/06/20 11:46:22;;;;;;;44.17;7.55;;;28.10;60.00;;;;;;5003141;28;20022;-59
2021/06/20 11:48:57;;;;;;;33.38;6.85;;;28.20;60.10;;;;;;5005296;28;20037;-59
2021/06/20 11:51:40;;;;;;;50.30;8.05;;;28.20;59.80;;;;;;5001577;28;20085;-60
2021/06/20 11:54:27;;;;;;;30.25;6.47;;;28.20;59.90;;;;;;4997847;28;20030;-60
2021/06/20 11:57:11;;;;;;;31.85;6.80;;;28.30;60.10;;;;;;5001349;28;20908;-60
2021/06/20 11:59:41;;;;;;;35.97;6.95;;;28.40;60.40;;;;;;5002498;28;20044;-60
2021/06/20 12:02:13;;;;;;;42.25;6.97;;;28.40;60.50;;;;;;4981179;28;20033;-59
2021/06/20 12:04:45;;;;;;;28.50;6.55;;;28.50;60.50;;;;;;4997278;28;20054;-59
2021/06/20 12:07:10;;;;;;;37.22;7.30;;;28.70;60.10;;;;;;4996990;28;20556;-59
2021/06/20 12:09:36;;;;;;;32.92;7.45;;;28.60;60.00;;;;;;5033078;28;20029;-59
2021/06/20 12:12:06;;;;;;;40.47;7.00;;;28.60;59.90;;;;;;4985543;28;20040;-60
2021/06/20 12:14:32;;;;;;;50.95;8.68;;;28.70;60.10;;;;;;5001891;28;20034;-60
2021/06/20 12:16:58;;;;;;;52.97;8.38;;;28.70;60.20;;;;;;4981655;28;20037;-60
2021/06/20 12:19:26;;;;;;;48.88;8.23;;;28.80;60.30;;;;;;5003259;28;20038;-59
2021/06/20 12:22:12;;;;;;;79.45;10.50;;;28.80;60.00;;;;;;4985414;28;20401;-59
2021/06/20 12:24:40;;;;;;;85.93;10.88;;;28.90;59.70;;;;;;4999928;28;20022;-59
2021/06/20 12:27:06;;;;;;;54.88;8.52;;;29.00;59.50;;;;;;5000648;28;20083;-60
2021/06/20 12:29:32;;;;;;;37.78;6.75;;;29.00;59.70;;;;;;5002736;28;20030;-59
2021/06/20 12:31:59;;;;;;;63.50;9.65;;;29.10;59.10;;;;;;4999277;28;20580;-60
2021/06/20 12:34:25;;;;;;;151.23;15.70;;;29.10;59.00;;;;;;4984190;28;20229;-59
2021/06/20 12:37:01;;;;;;;44.47;7.63;;;29.10;59.10;;;;;;4999324;28;20022;-60